Time;durP1;ratioP1;P1;durP2;ratioP2;P2;SDS_P1;SDS_P2;PMS_P1;PMS_P2;Temp;Humidity;BMP_temperature;BMP_pressure;BME280_temperature;BME280_humidity;BME280_pressure;Samples;Min_cycle;Max_cycle;Signal;HPM_P1;HPM_P2
2024/01/27 00:09:55;;;;;;;36.33;12.43;;;;;;;6.29;100.00;99915.25;31489458;28;20131;-76
2024/01/27 00:24:57;;;;;;;49.17;17.27;;;;;;;6.09;100.00;99922.28;31470130;28;20140;-76
2024/01/27 00:39:59;;;;;;;57.13;17.93;;;;;;;5.60;100.00;99913.19;31465158;28;20096;-76
2024/01/27 00:55:01;;;;;;;45.30;14.70;;;;;;;5.75;100.00;99920.06;31486827;28;20070;-77
2024/01/27 01:10:04;;;;;;;29.90;12.53;;;;;;;5.78;100.00;99924.66;31464186;28;20135;-76
2024/01/27 01:25:06;;;;;;;35.13;11.77;;;;;;;5.87;100.00;99932.34;31461647;28;20408;-75
2024/01/27 01:40:10;;;;;;;33.67;12.40;;;;;;;5.92;100.00;99931.19;31455345;28;20056;-76
2024/01/27 01:55:12;;;;;;;24.87;10.27;;;;;;;5.97;100.00;99952.34;31471323;28;20133;-75
2024/01/27 02:10:16;;;;;;;29.80;11.07;;;;;;;5.93;100.00;99956.97;31451497;28;20144;-76
2024/01/27 02:25:18;;;;;;;32.63;13.00;;;;;;;5.73;100.00;99970.84;31455931;28;20047;-76
2024/01/27 02:40:20;;;;;;;40.23;15.43;;;;;;;5.83;100.00;99974.69;31457590;28;20080;-76
2024/01/27 02:55:22;;;;;;;42.90;15.27;;;;;;;5.75;100.00;99979.31;31495012;28;20053;-76
2024/01/27 03:10:24;;;;;;;31.20;12.93;;;;;;;5.65;100.00;99993.59;31486062;28;20522;-76
2024/01/27 03:25:27;;;;;;;35.47;13.73;;;;;;;5.62;100.00;99980.88;31463551;28;20048;-74
2024/01/27 03:40:29;;;;;;;44.17;14.37;;;;;;;5.63;100.00;99987.81;31489075;28;20139;-76
2024/01/27 03:55:31;;;;;;;43.70;14.80;;;;;;;5.64;100.00;100000.13;31473749;28;20084;-76
2024/01/27 04:10:34;;;;;;;44.73;16.47;;;;;;;5.65;100.00;100009.75;31467817;28;20080;-75
2024/01/27 04:25:36;;;;;;;38.87;15.80;;;;;;;5.68;100.00;100019.72;31468851;28;20432;-75
2024/01/27 04:40:38;;;;;;;43.20;16.87;;;;;;;5.75;100.00;100035.09;31475979;28;20061;-76
2024/01/27 04:55:40;;;;;;;43.43;18.23;;;;;;;5.79;100.00;100055.50;31472261;28;20140;-76
2024/01/27 05:10:42;;;;;;;33.20;12.33;;;;;;;5.87;100.00;100077.06;31473888;28;20044;-74
2024/01/27 05:25:44;;;;;;;24.20;8.50;;;;;;;5.76;100.00;100082.44;31467438;28;20048;-76
2024/01/27 05:40:46;;;;;;;20.17;6.60;;;;;;;5.77;100.00;100078.59;31476814;28;20484;-75
2024/01/27 05:55:48;;;;;;;12.70;6.17;;;;;;;5.79;100.00;100085.13;31476753;28;20052;-75
2024/01/27 06:10:50;;;;;;;14.37;5.67;;;;;;;5.96;100.00;100104.38;31462812;28;20044;-74
2024/01/27 06:25:52;;;;;;;12.23;6.37;;;;;;;6.04;100.00;100103.22;31449548;28;20052;-76
2024/01/27 06:40:54;;;;;;;14.00;6.00;;;;;;;6.26;100.00;100110.13;31443875;28;20147;-74
2024/01/27 06:55:56;;;;;;;19.00;7.50;;;;;;;6.22;100.00;100120.13;31471442;28;20053;-76
2024/01/27 07:10:59;;;;;;;23.10;9.33;;;;;;;6.31;100.00;100123.22;31449437;28;20049;-77
2024/01/27 07:26:03;;;;;;;21.23;9.20;;;;;;;6.75;100.00;100127.31;31485102;28;20456;-75
2024/01/27 07:41:06;;;;;;;17.83;8.83;;;;;;;7.24;100.00;100134.41;31474727;28;20064;-76
2024/01/27 07:56:08;;;;;;;16.60;8.50;;;;;;;7.90;100.00;100147.09;31489916;28;20057;-76
2024/01/27 08:11:10;;;;;;;14.03;6.77;;;;;;;8.19;100.00;100153.78;31479668;28;20080;-77
2024/01/27 08:26:12;;;;;;;14.00;6.20;;;;;;;9.36;100.00;100178.78;31484789;28;20048;-75
2024/01/27 08:41:14;;;;;;;16.00;6.83;;;;;;;8.89;100.00;100184.78;31451498;28;20084;-78
2024/01/27 08:56:17;;;;;;;12.60;6.10;;;;;;;8.53;100.00;100189.81;31465858;28;20139;-76
2024/01/27 09:11:21;;;;;;;13.13;5.23;;;;;;;8.62;100.00;100181.22;31469565;28;20040;-75
2024/01/27 09:26:23;;;;;;;12.43;6.10;;;;;;;8.27;100.00;100193.09;31452081;28;20139;-76
2024/01/27 09:41:32;;;;;;;10.93;4.83;;;;;;;8.49;100.00;100199.91;31476578;28;20049;-75
2024/01/27 09:56:34;;;;;;;9.80;4.10;;;;;;;8.01;100.00;100212.66;31465069;28;20520;-76
2024/01/27 10:11:41;;;;;;;11.00;4.83;;;;;;;8.20;100.00;100201.31;31476740;28;20040;-74
2024/01/27 10:26:43;;;;;;;9.13;4.00;;;;;;;8.18;100.00;100201.69;31444730;28;20497;-76
2024/01/27 10:41:46;;;;;;;8.57;3.97;;;;;;;8.24;100.00;100207.44;31449234;28;20420;-77
2024/01/27 10:56:50;;;;;;;7.47;3.50;;;;;;;8.46;100.00;100210.75;31450307;28;20052;-78
2024/01/27 11:11:52;;;;;;;5.97;3.33;;;;;;;8.53;100.00;100216.84;31482823;28;20044;-76
2024/01/27 11:27:05;;;;;;;4.47;2.70;;;;;;;8.51;100.00;100224.59;31504494;28;20126;-75
2024/01/27 11:42:11;;;;;;;5.27;2.90;;;;;;;8.45;100.00;100225.47;31473255;28;20469;-75
2024/01/27 11:57:13;;;;;;;7.03;3.23;;;;;;;8.63;100.00;100241.53;31465743;28;20052;-76
2024/01/27 12:12:16;;;;;;;4.90;2.90;;;;;;;8.65;100.00;100244.59;31465393;28;20482;-77
2024/01/27 12:27:18;;;;;;;7.33;2.50;;;;;;;9.20;100.00;100256.00;31475198;28;20040;-76
2024/01/27 12:42:20;;;;;;;5.10;2.73;;;;;;;8.61;100.00;100287.16;31464756;28;20461;-76
2024/01/27 12:57:22;;;;;;;6.33;3.00;;;;;;;8.02;100.00;100304.19;31454008;28;20056;-77
2024/01/27 13:12:25;;;;;;;5.97;3.20;;;;;;;8.58;100.00;100315.00;31482797;28;20048;-77
2024/01/27 13:27:27;;;;;;;7.20;3.67;;;;;;;8.05;100.00;100324.22;31473967;28;20044;-76
2024/01/27 13:42:32;;;;;;;7.67;3.87;;;;;;;7.96;100.00;100345.53;31466290;28;20052;-76
2024/01/27 13:57:34;;;;;;;8.97;4.57;;;;;;;7.92;100.00;100366.41;31488299;28;20063;-76
2024/01/27 14:12:39;;;;;;;6.87;4.33;;;;;;;7.99;100.00;100372.56;31475503;28;20048;-77
2024/01/27 14:27:45;;;;;;;9.80;4.30;;;;;;;7.87;100.00;100387.28;31462195;28;20461;-76
2024/01/27 14:42:49;;;;;;;9.33;4.93;;;;;;;7.77;100.00;100396.22;31524914;28;20048;-76
2024/01/27 14:57:54;;;;;;;15.40;5.70;;;;;;;7.94;100.00;100407.34;31486846;28;20101;-78
2024/01/27 15:12:58;;;;;;;9.10;5.30;;;;;;;7.80;100.00;100427.84;31504684;28;20045;-75
2024/01/27 15:28:01;;;;;;;12.90;6.40;;;;;;;7.75;100.00;100436.38;31491626;28;20058;-78
2024/01/27 15:43:04;;;;;;;22.30;10.70;;;;;;;7.53;100.00;100438.34;31468978;28;20053;-76
2024/01/27 15:58:07;;;;;;;14.63;6.63;;;;;;;8.25;100.00;100451.63;31473660;28;20049;-79
2024/01/27 16:13:09;;;;;;;13.30;8.00;;;;;;;8.16;100.00;100462.84;31468036;28;20283;-78
2024/01/27 16:28:11;;;;;;;18.47;8.33;;;;;;;8.05;100.00;100478.34;31480446;28;20052;-78
2024/01/27 16:43:13;;;;;;;26.77;14.03;;;;;;;7.99;100.00;100510.44;31475157;28;20149;-75
2024/01/27 16:58:15;;;;;;;42.33;19.03;;;;;;;7.71;100.00;100524.78;31493407;28;20412;-76
2024/01/27 17:13:17;;;;;;;42.43;20.17;;;;;;;7.24;100.00;100534.06;31487853;28;20132;-76
2024/01/27 17:28:20;;;;;;;37.67;16.97;;;;;;;7.56;100.00;100547.53;31491260;28;20542;-76
2024/01/27 17:43:22;;;;;;;29.17;12.27;;;;;;;7.17;100.00;100539.44;31480789;28;20045;-74
2024/01/27 17:58:24;;;;;;;21.57;12.27;;;;;;;7.80;100.00;100562.97;31473876;28;20052;-76
2024/01/27 18:13:26;;;;;;;21.07;10.03;;;;;;;7.81;100.00;100575.31;31451746;28;20045;-75
2024/01/27 18:28:31;;;;;;;19.27;9.90;;;;;;;7.22;100.00;100581.50;31460756;28;20054;-75
2024/01/27 18:43:36;;;;;;;17.50;8.67;;;;;;;7.86;100.00;100585.75;31439264;28;20076;-75
2024/01/27 18:58:38;;;;;;;19.60;9.77;;;;;;;7.84;100.00;100598.88;31455433;28;20483;-76
2024/01/27 19:13:40;;;;;;;22.07;10.07;;;;;;;7.96;100.00;100613.16;31445026;28;20074;-79
2024/01/27 19:28:42;;;;;;;19.73;8.77;;;;;;;7.86;100.00;100634.41;31481303;28;20084;-78
2024/01/27 19:43:46;;;;;;;25.83;10.93;;;;;;;7.14;100.00;100637.41;31461170;28;20072;-75
2024/01/27 19:58:48;;;;;;;66.53;23.17;;;;;;;7.35;100.00;100644.78;31471623;28;20397;-76
2024/01/27 20:13:50;;;;;;;39.97;17.97;;;;;;;6.86;100.00;100659.66;31508664;28;20066;-76
2024/01/27 20:28:52;;;;;;;32.50;14.47;;;;;;;6.88;100.00;100662.75;31486180;28;20410;-75
2024/01/27 20:43:54;;;;;;;32.37;14.87;;;;;;;6.48;100.00;100671.81;31440942;28;20061;-76
2024/01/27 20:58:57;;;;;;;37.70;16.23;;;;;;;7.39;100.00;100677.97;31466236;28;20080;-75
2024/01/27 21:13:59;;;;;;;42.63;18.57;;;;;;;6.84;100.00;100694.38;31445298;28;20056;-75
2024/01/27 21:29:06;;;;;;;43.77;16.00;;;;;;;6.60;100.00;100709.28;31468128;28;20084;-75
2024/01/27 21:44:08;;;;;;;39.57;15.47;;;;;;;5.92;100.00;100726.81;31446226;28;20136;-74
2024/01/27 21:59:10;;;;;;;34.23;16.60;;;;;;;6.56;100.00;100723.88;31459411;28;20053;-78
2024/01/27 22:14:14;;;;;;;37.70;16.53;;;;;;;6.73;100.00;100731.31;31462156;28;20135;-74
2024/01/27 22:29:16;;;;;;;36.90;15.57;;;;;;;6.85;100.00;100739.06;31460180;28;20045;-75
2024/01/27 22:44:19;;;;;;;40.23;16.63;;;;;;;6.60;100.00;100744.34;31453088;28;20135;-74
2024/01/27 22:59:21;;;;;;;36.40;16.43;;;;;;;6.06;100.00;100747.75;31490802;28;20462;-75
2024/01/27 23:14:23;;;;;;;36.87;17.67;;;;;;;6.14;100.00;100749.38;31490366;28;20541;-76
2024/01/27 23:29:25;;;;;;;40.10;16.17;;;;;;;6.43;100.00;100761.94;31463354;28;20059;-75
2024/01/27 23:44:27;;;;;;;37.83;18.40;;;;;;;5.99;100.00;100770.03;31474235;28;20052;-77
2024/01/27 23:59:29;;;;;;;44.33;21.03;;;;;;;7.10;100.00;100796.66;31485135;28;20110;-74
